createdAt,value
2017-03-18T00:00:09.503Z,929.62
2017-03-18T00:00:23.615Z,929.65
2017-03-18T00:00:37.743Z,929.62
2017-03-18T00:00:51.902Z,929.65
2017-03-18T00:01:06.054Z,929.62
2017-03-18T00:01:20.220Z,929.62
2017-03-18T00:01:34.438Z,929.63
2017-03-18T00:01:48.661Z,929.57
2017-03-18T00:02:02.830Z,929.6
2017-03-18T00:02:17.009Z,929.6
2017-03-18T00:02:31.467Z,929.6
2017-03-18T00:02:45.632Z,929.67
2017-03-18T00:03:00.281Z,929.57
2017-03-18T00:03:14.442Z,929.59
2017-03-18T00:03:28.587Z,929.65
2017-03-18T00:03:42.678Z,929.6
2017-03-18T00:03:56.800Z,929.62
2017-03-18T00:04:11.033Z,929.56
2017-03-18T00:04:25.323Z,929.58
2017-03-18T00:04:39.446Z,929.61
2017-03-18T00:04:53.548Z,929.6
2017-03-18T00:05:07.832Z,929.58
2017-03-18T00:05:22.051Z,929.62
2017-03-18T00:05:36.216Z,929.6
2017-03-18T00:05:50.307Z,929.59
2017-03-18T00:06:04.459Z,929.64
2017-03-18T00:06:18.600Z,929.61
2017-03-18T00:06:32.737Z,929.57
2017-03-18T00:06:46.856Z,929.58
2017-03-18T00:07:01.010Z,929.55
2017-03-18T00:07:15.197Z,929.58
2017-03-18T00:07:29.601Z,929.55
2017-03-18T00:07:44.042Z,929.56
2017-03-18T00:07:58.432Z,929.58
2017-03-18T00:08:12.626Z,929.55
2017-03-18T00:08:28.162Z,929.59
2017-03-18T00:08:42.370Z,929.57
2017-03-18T00:08:56.582Z,929.57
2017-03-18T00:09:10.741Z,929.54
2017-03-18T00:09:27.035Z,929.53
2017-03-18T00:09:41.547Z,929.56
2017-03-18T00:09:55.730Z,929.61
2017-03-18T00:10:11.962Z,929.58
2017-03-18T00:10:31.225Z,929.52
2017-03-18T00:10:45.459Z,929.6
2017-03-18T00:10:59.931Z,929.5
2017-03-18T00:11:14.158Z,929.49
2017-03-18T00:11:28.324Z,929.51
2017-03-18T00:11:42.486Z,929.51
2017-03-18T00:11:56.653Z,929.5
2017-03-18T00:12:10.816Z,929.55
2017-03-18T00:12:25.021Z,929.5
2017-03-18T00:12:39.196Z,929.51
2017-03-18T00:12:53.347Z,929.5
2017-03-18T00:13:07.411Z,929.47
2017-03-18T00:13:21.567Z,929.49
2017-03-18T00:13:35.708Z,929.44
2017-03-18T00:13:49.931Z,929.48
2017-03-18T00:14:04.128Z,929.49
2017-03-18T00:14:18.278Z,929.44
2017-03-18T00:14:32.392Z,929.5
2017-03-18T00:14:46.547Z,929.46
2017-03-18T00:15:00.703Z,929.48
2017-03-18T00:15:14.854Z,929.48
2017-03-18T00:15:29.060Z,929.47
2017-03-18T00:15:43.186Z,929.51
2017-03-18T00:15:57.306Z,929.43
2017-03-18T00:16:11.429Z,929.47
2017-03-18T00:16:25.595Z,929.48
2017-03-18T00:16:39.810Z,929.45
2017-03-18T00:16:53.902Z,929.44
2017-03-18T00:17:08.065Z,929.45
2017-03-18T00:17:22.254Z,929.49
2017-03-18T00:17:36.808Z,929.44
2017-03-18T00:17:50.929Z,929.45
2017-03-18T00:18:05.060Z,929.44
2017-03-18T00:18:19.223Z,929.47
2017-03-18T00:18:33.422Z,929.47
2017-03-18T00:18:47.590Z,929.51
2017-03-18T00:19:01.745Z,929.42
2017-03-18T00:19:15.915Z,929.48
2017-03-18T00:19:30.052Z,929.43
2017-03-18T00:19:44.261Z,929.44
2017-03-18T00:19:58.455Z,929.43
2017-03-18T00:20:12.677Z,929.41
2017-03-18T00:20:26.816Z,929.41
2017-03-18T00:20:40.995Z,929.44
2017-03-18T00:20:55.138Z,929.43
2017-03-18T00:21:09.395Z,929.48
2017-03-18T00:21:23.541Z,929.48
2017-03-18T00:21:37.762Z,929.43
2017-03-18T00:21:51.857Z,929.44
2017-03-18T00:22:05.997Z,929.43
2017-03-18T00:22:20.126Z,929.4
2017-03-18T00:22:34.199Z,929.4
2017-03-18T00:22:48.308Z,929.4
2017-03-18T00:23:02.449Z,929.4
2017-03-18T00:23:16.629Z,929.39
2017-03-18T00:23:30.725Z,929.38
2017-03-18T00:23:44.849Z,929.44
2017-03-18T00:23:58.978Z,929.38
2017-03-18T00:24:13.036Z,929.39
2017-03-18T00:24:27.201Z,929.39
2017-03-18T00:24:41.354Z,929.37
2017-03-18T00:24:55.502Z,929.33
2017-03-18T00:25:09.717Z,929.38
2017-03-18T00:25:23.899Z,929.4
2017-03-18T00:25:38.028Z,929.37
2017-03-18T00:25:52.228Z,929.34
2017-03-18T00:26:06.320Z,929.34
2017-03-18T00:26:20.469Z,929.33
2017-03-18T00:26:34.614Z,929.33
2017-03-18T00:26:48.759Z,929.34
2017-03-18T00:27:02.961Z,929.3
2017-03-18T00:27:17.196Z,929.33
2017-03-18T00:27:31.321Z,929.33
2017-03-18T00:27:45.458Z,929.31
2017-03-18T00:27:59.698Z,929.34
2017-03-18T00:28:13.848Z,929.3
2017-03-18T00:28:27.999Z,929.35
2017-03-18T00:28:42.192Z,929.36
2017-03-18T00:28:56.279Z,929.34
2017-03-18T00:29:10.427Z,929.36
2017-03-18T00:29:24.669Z,929.35
2017-03-18T00:29:38.876Z,929.38
2017-03-18T00:29:52.989Z,929.33
2017-03-18T00:30:07.138Z,929.34
2017-03-18T00:30:21.225Z,929.36
2017-03-18T00:30:35.367Z,929.35
2017-03-18T00:30:49.595Z,929.3
2017-03-18T00:31:03.755Z,929.29
2017-03-18T00:31:17.894Z,929.32
2017-03-18T00:31:32.066Z,929.34
2017-03-18T00:31:46.258Z,929.36
2017-03-18T00:32:00.424Z,929.34
2017-03-18T00:32:14.551Z,929.32
2017-03-18T00:32:28.714Z,929.33
2017-03-18T00:32:43.075Z,929.32
2017-03-18T00:32:57.237Z,929.32
2017-03-18T00:33:11.418Z,929.34
2017-03-18T00:33:25.628Z,929.32
2017-03-18T00:33:39.832Z,929.3
2017-03-18T00:33:54.029Z,929.32
2017-03-18T00:34:08.159Z,929.33
2017-03-18T00:34:22.313Z,929.32
2017-03-18T00:34:36.460Z,929.3
2017-03-18T00:34:50.634Z,929.36
2017-03-18T00:35:04.835Z,929.33
2017-03-18T00:35:19.033Z,929.33
2017-03-18T00:35:33.201Z,929.37
2017-03-18T00:35:47.371Z,929.36
2017-03-18T00:36:01.518Z,929.4
2017-03-18T00:36:15.883Z,929.37
2017-03-18T00:36:30.079Z,929.36
2017-03-18T00:36:44.288Z,929.36
2017-03-18T00:36:58.414Z,929.3
2017-03-18T00:37:12.576Z,929.4
2017-03-18T00:37:26.747Z,929.34
2017-03-18T00:37:41.576Z,929.39
2017-03-18T00:37:57.189Z,929.39
2017-03-18T00:38:11.410Z,929.45
2017-03-18T00:38:25.564Z,929.43
2017-03-18T00:38:39.702Z,929.45
2017-03-18T00:38:53.836Z,929.43
2017-03-18T00:39:08.057Z,929.38
2017-03-18T00:39:22.212Z,929.41
2017-03-18T00:39:36.295Z,929.43
2017-03-18T00:39:50.479Z,929.48
2017-03-18T00:40:04.621Z,929.39
2017-03-18T00:40:18.779Z,929.45
2017-03-18T00:40:32.974Z,929.37
2017-03-18T00:40:47.133Z,929.39
2017-03-18T00:41:01.297Z,929.44
2017-03-18T00:41:15.430Z,929.39
2017-03-18T00:41:30.199Z,929.41
2017-03-18T00:41:44.406Z,929.43
2017-03-18T00:41:58.532Z,929.41
2017-03-18T00:42:12.697Z,929.44
2017-03-18T00:42:26.854Z,929.52
2017-03-18T00:42:41.063Z,929.44
2017-03-18T00:42:55.276Z,929.44
2017-03-18T00:43:09.459Z,929.46
2017-03-18T00:43:23.594Z,929.44
2017-03-18T00:43:37.746Z,929.49
2017-03-18T00:43:51.895Z,929.52
2017-03-18T00:44:06.019Z,929.46
2017-03-18T00:44:20.170Z,929.49
2017-03-18T00:44:34.332Z,929.48
2017-03-18T00:44:48.530Z,929.54
2017-03-18T00:45:02.722Z,929.47
2017-03-18T00:45:16.930Z,929.49
2017-03-18T00:45:31.053Z,929.5
2017-03-18T00:45:45.222Z,929.56
2017-03-18T00:45:59.620Z,929.57
2017-03-18T00:46:13.791Z,929.51
2017-03-18T00:46:27.883Z,929.57
2017-03-18T00:46:42.003Z,929.54
2017-03-18T00:46:56.161Z,929.5
2017-03-18T00:47:10.576Z,929.48
2017-03-18T00:47:24.694Z,929.49
2017-03-18T00:47:38.834Z,929.53
2017-03-18T00:47:53.326Z,929.55
2017-03-18T00:48:07.416Z,929.51
2017-03-18T00:48:21.610Z,929.54
2017-03-18T00:48:35.824Z,929.5
2017-03-18T00:48:49.991Z,929.49
2017-03-18T00:49:04.182Z,929.48
2017-03-18T00:49:18.351Z,929.49
2017-03-18T00:49:32.541Z,929.49
2017-03-18T00:49:46.651Z,929.5
2017-03-18T00:50:00.835Z,929.52
2017-03-18T00:50:15.043Z,929.55
2017-03-18T00:50:29.181Z,929.53
2017-03-18T00:50:43.330Z,929.57
2017-03-18T00:50:57.416Z,929.53
2017-03-18T00:51:11.956Z,929.54
2017-03-18T00:51:27.381Z,929.55
2017-03-18T00:51:41.600Z,929.52
2017-03-18T00:51:55.794Z,929.52
2017-03-18T00:52:09.924Z,929.54
2017-03-18T00:52:24.117Z,929.55
2017-03-18T00:52:38.223Z,929.54
2017-03-18T00:52:52.351Z,929.53
2017-03-18T00:53:06.496Z,929.56
2017-03-18T00:53:20.627Z,929.53
2017-03-18T00:53:34.775Z,929.51
2017-03-18T00:53:48.885Z,929.49
2017-03-18T00:54:03.021Z,929.53
2017-03-18T00:54:17.184Z,929.47
2017-03-18T00:54:31.276Z,929.49
2017-03-18T00:54:45.475Z,929.46
2017-03-18T00:54:59.597Z,929.53
2017-03-18T00:55:13.727Z,929.48
2017-03-18T00:55:27.879Z,929.46
2017-03-18T00:55:42.022Z,929.44
2017-03-18T00:55:56.130Z,929.47
2017-03-18T00:56:10.346Z,929.44
2017-03-18T00:56:24.499Z,929.47
2017-03-18T00:56:38.691Z,929.44
2017-03-18T00:56:52.763Z,929.43
2017-03-18T00:57:06.829Z,929.46
2017-03-18T00:57:20.935Z,929.48
2017-03-18T00:57:35.033Z,929.48
2017-03-18T00:57:49.222Z,929.44
2017-03-18T00:58:03.345Z,929.47
2017-03-18T00:58:17.393Z,929.44
2017-03-18T00:58:31.487Z,929.42
2017-03-18T00:58:45.620Z,929.43
2017-03-18T00:58:59.802Z,929.43
2017-03-18T00:59:13.882Z,929.43
2017-03-18T00:59:27.987Z,929.42
2017-03-18T00:59:42.131Z,929.44
2017-03-18T00:59:56.222Z,929.46
2017-03-18T01:00:10.305Z,929.43
2017-03-18T01:00:24.438Z,929.38
2017-03-18T01:00:38.514Z,929.41
2017-03-18T01:00:52.670Z,929.43
2017-03-18T01:01:06.823Z,929.44
2017-03-18T01:01:20.934Z,929.43
2017-03-18T01:01:35.056Z,929.44
2017-03-18T01:01:49.152Z,929.41
2017-03-18T01:02:03.309Z,929.4
2017-03-18T01:02:17.558Z,929.41
2017-03-18T01:02:31.689Z,929.4
2017-03-18T01:02:45.842Z,929.39
2017-03-18T01:03:00.217Z,929.41
2017-03-18T01:03:14.339Z,929.39
2017-03-18T01:03:28.519Z,929.39
2017-03-18T01:03:42.629Z,929.46
2017-03-18T01:03:56.768Z,929.4
2017-03-18T01:04:10.856Z,929.41
2017-03-18T01:04:24.973Z,929.38
2017-03-18T01:04:39.133Z,929.36
2017-03-18T01:04:53.327Z,929.39
2017-03-18T01:05:07.446Z,929.37
2017-03-18T01:05:21.557Z,929.34
2017-03-18T01:05:35.662Z,929.27
2017-03-18T01:05:49.787Z,929.34
2017-03-18T01:06:03.927Z,929.38
2017-03-18T01:06:18.036Z,929.35
2017-03-18T01:06:32.292Z,929.37
2017-03-18T01:06:46.407Z,929.34
2017-03-18T01:07:00.526Z,929.32
2017-03-18T01:07:14.678Z,929.34
2017-03-18T01:07:28.829Z,929.33
2017-03-18T01:07:42.999Z,929.33
2017-03-18T01:07:57.162Z,929.31
2017-03-18T01:08:11.328Z,929.27
2017-03-18T01:08:25.478Z,929.3
2017-03-18T01:08:39.632Z,929.33
2017-03-18T01:08:53.713Z,929.31
2017-03-18T01:09:07.887Z,929.29
2017-03-18T01:09:22.105Z,929.3
2017-03-18T01:09:36.228Z,929.25
2017-03-18T01:09:50.369Z,929.31
2017-03-18T01:10:04.591Z,929.27
2017-03-18T01:10:18.788Z,929.28
2017-03-18T01:10:32.924Z,929.26
2017-03-18T01:10:47.053Z,929.29
2017-03-18T01:11:01.134Z,929.24
2017-03-18T01:11:15.300Z,929.23
2017-03-18T01:11:29.408Z,929.25
2017-03-18T01:11:43.551Z,929.21
2017-03-18T01:11:57.687Z,929.23
2017-03-18T01:12:11.849Z,929.23
2017-03-18T01:12:26.028Z,929.22
2017-03-18T01:12:40.229Z,929.24
2017-03-18T01:12:54.339Z,929.22
2017-03-18T01:13:08.490Z,929.25
2017-03-18T01:13:22.622Z,929.22
2017-03-18T01:13:36.698Z,929.21
2017-03-18T01:13:50.821Z,929.19
2017-03-18T01:14:04.940Z,929.23
2017-03-18T01:14:19.147Z,929.22
2017-03-18T01:14:33.306Z,929.24
2017-03-18T01:14:47.474Z,929.22
2017-03-18T01:15:01.620Z,929.24
2017-03-18T01:15:15.780Z,929.21
2017-03-18T01:15:29.969Z,929.23
2017-03-18T01:15:44.112Z,929.2
2017-03-18T01:15:58.233Z,929.23
2017-03-18T01:16:12.379Z,929.23
2017-03-18T01:16:26.641Z,929.24
2017-03-18T01:16:40.785Z,929.24
2017-03-18T01:16:54.911Z,929.24
2017-03-18T01:17:09.100Z,929.24
2017-03-18T01:17:23.293Z,929.24
2017-03-18T01:17:37.435Z,929.23
2017-03-18T01:17:51.542Z,929.23
2017-03-18T01:18:05.837Z,929.26
2017-03-18T01:18:20.017Z,929.26
2017-03-18T01:18:34.198Z,929.27
2017-03-18T01:18:48.344Z,929.29
2017-03-18T01:19:02.505Z,929.28
2017-03-18T01:19:16.732Z,929.31
2017-03-18T01:19:30.883Z,929.32
2017-03-18T01:19:45.040Z,929.3
2017-03-18T01:19:59.206Z,929.3
2017-03-18T01:20:13.356Z,929.29
2017-03-18T01:20:27.467Z,929.34
2017-03-18T01:20:41.610Z,929.3
2017-03-18T01:20:55.836Z,929.34
2017-03-18T01:21:10.225Z,929.34
2017-03-18T01:21:24.367Z,929.37
2017-03-18T01:21:38.475Z,929.34
2017-03-18T01:21:52.582Z,929.34
2017-03-18T01:22:06.730Z,929.36
2017-03-18T01:22:20.891Z,929.33
2017-03-18T01:22:35.004Z,929.36
2017-03-18T01:22:49.161Z,929.36
2017-03-18T01:23:03.315Z,929.33
2017-03-18T01:23:17.512Z,929.35
2017-03-18T01:23:31.631Z,929.37
2017-03-18T01:23:45.842Z,929.37
2017-03-18T01:24:00.034Z,929.33
2017-03-18T01:24:14.151Z,929.37
2017-03-18T01:24:28.334Z,929.39
2017-03-18T01:24:42.498Z,929.37
2017-03-18T01:24:56.618Z,929.41
2017-03-18T01:25:11.394Z,929.37
2017-03-18T01:25:25.573Z,929.41
2017-03-18T01:25:39.741Z,929.39
2017-03-18T01:25:53.911Z,929.37
2017-03-18T01:26:08.128Z,929.39
2017-03-18T01:26:23.635Z,929.41
2017-03-18T01:26:37.755Z,929.38
2017-03-18T01:26:51.833Z,929.39
2017-03-18T01:27:05.981Z,929.34
2017-03-18T01:27:20.142Z,929.36
2017-03-18T01:27:34.338Z,929.41
2017-03-18T01:27:48.742Z,929.38
2017-03-18T01:28:03.394Z,929.38
2017-03-18T01:28:17.529Z,929.38
2017-03-18T01:28:31.678Z,929.42
2017-03-18T01:28:45.875Z,929.43
2017-03-18T01:29:00.027Z,929.4
2017-03-18T01:29:14.088Z,929.44
2017-03-18T01:29:28.299Z,929.41
2017-03-18T01:29:42.470Z,929.42
2017-03-18T01:29:56.647Z,929.42
2017-03-18T01:30:10.761Z,929.42
2017-03-18T01:30:24.953Z,929.43
2017-03-18T01:30:39.101Z,929.38
2017-03-18T01:30:53.396Z,929.42
2017-03-18T01:31:07.576Z,929.45
2017-03-18T01:31:21.739Z,929.43
2017-03-18T01:31:35.863Z,929.41
2017-03-18T01:31:49.987Z,929.4
2017-03-18T01:32:04.111Z,929.38
2017-03-18T01:32:18.289Z,929.41
2017-03-18T01:32:32.446Z,929.41
2017-03-18T01:32:46.584Z,929.42
2017-03-18T01:33:00.756Z,929.4
2017-03-18T01:33:15.104Z,929.39
2017-03-18T01:33:29.239Z,929.41
2017-03-18T01:33:43.424Z,929.4
2017-03-18T01:33:57.600Z,929.39
2017-03-18T01:34:11.691Z,929.37
2017-03-18T01:34:25.807Z,929.37
2017-03-18T01:34:39.925Z,929.35
2017-03-18T01:34:54.142Z,929.35
2017-03-18T01:35:08.380Z,929.38
2017-03-18T01:35:22.512Z,929.33
2017-03-18T01:35:36.748Z,929.36
2017-03-18T01:35:50.854Z,929.4
2017-03-18T01:36:04.986Z,929.39
2017-03-18T01:36:19.169Z,929.36
2017-03-18T01:36:33.308Z,929.31
2017-03-18T01:36:47.464Z,929.3
2017-03-18T01:37:01.636Z,929.34
2017-03-18T01:37:15.775Z,929.3
2017-03-18T01:37:29.902Z,929.29
2017-03-18T01:37:44.037Z,929.3
2017-03-18T01:37:58.147Z,929.33
2017-03-18T01:38:12.823Z,929.3
2017-03-18T01:38:26.960Z,929.28
2017-03-18T01:38:41.067Z,929.29
2017-03-18T01:38:55.240Z,929.27
2017-03-18T01:39:09.378Z,929.3
2017-03-18T01:39:23.490Z,929.27
2017-03-18T01:39:37.570Z,929.28
2017-03-18T01:39:51.665Z,929.3
2017-03-18T01:40:05.797Z,929.28
2017-03-18T01:40:19.904Z,929.27
2017-03-18T01:40:33.960Z,929.29
2017-03-18T01:40:48.058Z,929.3
2017-03-18T01:41:02.160Z,929.31
2017-03-18T01:41:16.331Z,929.33
2017-03-18T01:41:30.454Z,929.33
2017-03-18T01:41:44.757Z,929.32
2017-03-18T01:41:58.907Z,929.28
2017-03-18T01:42:13.112Z,929.3
2017-03-18T01:42:27.220Z,929.32
2017-03-18T01:42:41.345Z,929.27
2017-03-18T01:42:55.527Z,929.26
2017-03-18T01:43:09.619Z,929.29
2017-03-18T01:43:23.670Z,929.27
2017-03-18T01:43:37.845Z,929.25
2017-03-18T01:43:51.968Z,929.28
2017-03-18T01:44:06.181Z,929.28
2017-03-18T01:44:20.318Z,929.23
2017-03-18T01:44:34.488Z,929.28
2017-03-18T01:44:48.645Z,929.26
2017-03-18T01:45:02.715Z,929.28
2017-03-18T01:45:16.819Z,929.26
2017-03-18T01:45:31.001Z,929.28
2017-03-18T01:45:45.183Z,929.28
2017-03-18T01:45:59.288Z,929.27
2017-03-18T01:46:13.425Z,929.31
2017-03-18T01:46:27.532Z,929.25
2017-03-18T01:46:41.621Z,929.2
2017-03-18T01:46:55.805Z,929.23
2017-03-18T01:47:09.920Z,929.2
2017-03-18T01:47:24.096Z,929.18
2017-03-18T01:47:38.237Z,929.23
2017-03-18T01:47:52.343Z,929.22
2017-03-18T01:48:06.549Z,929.25
2017-03-18T01:48:20.939Z,929.23
2017-03-18T01:48:35.105Z,929.19
2017-03-18T01:48:49.189Z,929.22
2017-03-18T01:49:03.377Z,929.25
2017-03-18T01:49:17.556Z,929.23
2017-03-18T01:49:31.712Z,929.24
2017-03-18T01:49:45.847Z,929.23
2017-03-18T01:49:59.977Z,929.23
2017-03-18T01:50:14.091Z,929.24
2017-03-18T01:50:28.297Z,929.25
2017-03-18T01:50:42.508Z,929.29
2017-03-18T01:50:56.642Z,929.27
2017-03-18T01:51:10.777Z,929.26
2017-03-18T01:51:24.957Z,929.23
2017-03-18T01:51:39.089Z,929.24
2017-03-18T01:51:53.160Z,929.27
2017-03-18T01:52:07.336Z,929.26
2017-03-18T01:52:21.429Z,929.26
2017-03-18T01:52:35.603Z,929.24
2017-03-18T01:52:49.743Z,929.22
2017-03-18T01:53:03.925Z,929.23
2017-03-18T01:53:18.160Z,929.31
2017-03-18T01:53:32.215Z,929.27
2017-03-18T01:53:46.322Z,929.25
2017-03-18T01:54:00.470Z,929.27
2017-03-18T01:54:14.645Z,929.24
2017-03-18T01:54:28.776Z,929.24
2017-03-18T01:54:42.949Z,929.19
2017-03-18T01:54:57.110Z,929.21
2017-03-18T01:55:11.252Z,929.2
2017-03-18T01:55:25.335Z,929.23
2017-03-18T01:55:39.476Z,929.25
2017-03-18T01:55:53.603Z,929.19
2017-03-18T01:56:07.769Z,929.18
2017-03-18T01:56:21.852Z,929.18
2017-03-18T01:56:36.021Z,929.18
2017-03-18T01:56:50.183Z,929.2
2017-03-18T01:57:04.283Z,929.19
2017-03-18T01:57:18.444Z,929.24
2017-03-18T01:57:32.675Z,929.2
2017-03-18T01:57:46.755Z,929.19
2017-03-18T01:58:00.902Z,929.24
2017-03-18T01:58:15.056Z,929.22
2017-03-18T01:58:29.205Z,929.18
2017-03-18T01:58:43.329Z,929.21
2017-03-18T01:58:57.481Z,929.2
2017-03-18T01:59:11.632Z,929.19
2017-03-18T01:59:25.736Z,929.13
2017-03-18T01:59:39.875Z,929.16
2017-03-18T01:59:53.982Z,929.21
2017-03-18T02:00:08.300Z,929.19
2017-03-18T02:00:22.442Z,929.2
2017-03-18T02:00:36.584Z,929.18
2017-03-18T02:00:50.682Z,929.18
2017-03-18T02:01:04.833Z,929.14
2017-03-18T02:01:19.026Z,929.16
2017-03-18T02:01:33.177Z,929.15
2017-03-18T02:01:47.354Z,929.16
2017-03-18T02:02:01.471Z,929.15
2017-03-18T02:02:15.640Z,929.06
2017-03-18T02:02:29.735Z,929.11
2017-03-18T02:02:43.877Z,929.1
2017-03-18T02:02:58.001Z,929.15
2017-03-18T02:03:12.173Z,929.09
2017-03-18T02:03:26.366Z,929.12
2017-03-18T02:03:40.734Z,929.11
2017-03-18T02:03:54.864Z,929.07
2017-03-18T02:04:09.260Z,929.17
2017-03-18T02:04:23.409Z,929.15
2017-03-18T02:04:37.569Z,929.17
2017-03-18T02:04:51.685Z,929.12
2017-03-18T02:05:05.822Z,929.12
2017-03-18T02:05:20.001Z,929.14
2017-03-18T02:05:34.138Z,929.11
2017-03-18T02:05:48.316Z,929.1
2017-03-18T02:06:02.403Z,929.11
2017-03-18T02:06:16.542Z,929.07
2017-03-18T02:06:30.670Z,929.08
2017-03-18T02:06:44.814Z,929.05
2017-03-18T02:06:58.957Z,929.09
2017-03-18T02:07:13.148Z,929.11
2017-03-18T02:07:27.325Z,929.06
2017-03-18T02:07:41.533Z,929.11
2017-03-18T02:07:55.715Z,929.11
2017-03-18T02:08:09.928Z,929.11
2017-03-18T02:08:24.092Z,929.09
2017-03-18T02:08:38.231Z,929.1
2017-03-18T02:08:52.418Z,929.06
2017-03-18T02:09:06.579Z,929.06
2017-03-18T02:09:20.703Z,929.09
2017-03-18T02:09:34.859Z,929.11
2017-03-18T02:09:49.086Z,929.07
2017-03-18T02:10:03.230Z,929.06
2017-03-18T02:10:17.423Z,929.07
2017-03-18T02:10:31.500Z,929.07
2017-03-18T02:10:45.712Z,929.12
2017-03-18T02:10:59.851Z,929.07
2017-03-18T02:11:13.958Z,929.09
2017-03-18T02:11:28.160Z,929.09
2017-03-18T02:11:42.233Z,929.07
2017-03-18T02:11:56.398Z,929.13
2017-03-18T02:12:10.528Z,929.09
2017-03-18T02:12:24.689Z,929.13
2017-03-18T02:12:38.914Z,929.11
2017-03-18T02:12:53.047Z,929.1
2017-03-18T02:13:07.188Z,929.08
2017-03-18T02:13:21.346Z,929.09
2017-03-18T02:13:35.534Z,929.12
2017-03-18T02:13:49.679Z,929.14
2017-03-18T02:14:03.778Z,929.11
2017-03-18T02:14:17.935Z,929.11
2017-03-18T02:14:32.073Z,929.12
2017-03-18T02:14:46.210Z,929.1
2017-03-18T02:15:00.325Z,929.11
2017-03-18T02:15:14.414Z,929.08
2017-03-18T02:15:28.551Z,929.05
2017-03-18T02:15:42.643Z,929.07
2017-03-18T02:15:56.756Z,929.07
2017-03-18T02:16:10.844Z,929.07
2017-03-18T02:16:25.028Z,929.06
2017-03-18T02:16:39.159Z,929.07
2017-03-18T02:16:53.303Z,929.06
2017-03-18T02:17:07.482Z,929.08
2017-03-18T02:17:21.630Z,929.09
2017-03-18T02:17:35.744Z,929.11
2017-03-18T02:17:49.981Z,929.09
2017-03-18T02:18:04.152Z,929.13
2017-03-18T02:18:18.350Z,929.12
2017-03-18T02:18:32.529Z,929.07
2017-03-18T02:18:46.876Z,929.12
2017-03-18T02:19:01.047Z,929.11
2017-03-18T02:19:15.216Z,929.1
2017-03-18T02:19:29.371Z,929.09
2017-03-18T02:19:43.485Z,929.14
2017-03-18T02:19:57.605Z,929.09
2017-03-18T02:20:11.750Z,929.17
2017-03-18T02:20:25.881Z,929.18
2017-03-18T02:20:40.001Z,929.11
2017-03-18T02:20:54.120Z,929.12
2017-03-18T02:21:08.258Z,929.07
2017-03-18T02:21:22.397Z,929.11
2017-03-18T02:21:36.482Z,929.19
2017-03-18T02:21:50.600Z,929.15
2017-03-18T02:22:04.747Z,929.13
2017-03-18T02:22:18.916Z,929.16
2017-03-18T02:22:33.042Z,929.11
2017-03-18T02:22:47.209Z,929.14
2017-03-18T02:23:01.295Z,929.18
2017-03-18T02:23:15.541Z,929.18
2017-03-18T02:23:29.737Z,929.17
2017-03-18T02:23:43.915Z,929.12
2017-03-18T02:23:58.080Z,929.11
2017-03-18T02:24:12.249Z,929.16
2017-03-18T02:24:26.330Z,929.1
2017-03-18T02:24:40.472Z,929.18
2017-03-18T02:24:54.642Z,929.16
2017-03-18T02:25:08.822Z,929.17
2017-03-18T02:25:22.931Z,929.16
2017-03-18T02:25:37.009Z,929.14
2017-03-18T02:25:51.118Z,929.16
2017-03-18T02:26:05.298Z,929.19
2017-03-18T02:26:19.375Z,929.16
2017-03-18T02:26:33.490Z,929.19
2017-03-18T02:26:47.607Z,929.2
2017-03-18T02:27:01.807Z,929.2
2017-03-18T02:27:15.935Z,929.19
2017-03-18T02:27:30.033Z,929.16
2017-03-18T02:27:44.118Z,929.19
2017-03-18T02:27:58.270Z,929.16
2017-03-18T02:28:12.391Z,929.28
2017-03-18T02:28:26.532Z,929.21
2017-03-18T02:28:40.676Z,929.17
2017-03-18T02:28:54.792Z,929.19
2017-03-18T02:29:08.996Z,929.18
2017-03-18T02:29:23.155Z,929.18
2017-03-18T02:29:37.264Z,929.21
2017-03-18T02:29:51.328Z,929.18
2017-03-18T02:30:05.477Z,929.18
2017-03-18T02:30:19.566Z,929.19
2017-03-18T02:30:33.751Z,929.21
2017-03-18T02:30:47.903Z,929.16
2017-03-18T02:31:02.060Z,929.19
2017-03-18T02:31:16.193Z,929.2
2017-03-18T02:31:30.318Z,929.25
2017-03-18T02:31:44.463Z,929.22
2017-03-18T02:31:58.519Z,929.23
2017-03-18T02:32:12.650Z,929.18
2017-03-18T02:32:26.798Z,929.25
2017-03-18T02:32:40.933Z,929.2
2017-03-18T02:32:55.083Z,929.2
2017-03-18T02:33:09.216Z,929.26
2017-03-18T02:33:23.307Z,929.22
2017-03-18T02:33:37.390Z,929.23
2017-03-18T02:33:51.677Z,929.25
2017-03-18T02:34:05.848Z,929.17
2017-03-18T02:34:19.984Z,929.22
2017-03-18T02:34:34.123Z,929.2
2017-03-18T02:34:48.248Z,929.21
2017-03-18T02:35:02.409Z,929.21
2017-03-18T02:35:16.473Z,929.25
2017-03-18T02:35:30.639Z,929.21
2017-03-18T02:35:44.814Z,929.23
2017-03-18T02:35:58.973Z,929.25
2017-03-18T02:36:13.072Z,929.25
2017-03-18T02:36:27.244Z,929.23
2017-03-18T02:36:41.437Z,929.22
2017-03-18T02:36:55.589Z,929.28
2017-03-18T02:37:09.712Z,929.24
2017-03-18T02:37:23.864Z,929.23
2017-03-18T02:37:37.970Z,929.28
2017-03-18T02:37:52.098Z,929.27
2017-03-18T02:38:06.226Z,929.26
2017-03-18T02:38:20.460Z,929.31
2017-03-18T02:38:34.543Z,929.27
2017-03-18T02:38:48.654Z,929.3
2017-03-18T02:39:02.775Z,929.27
2017-03-18T02:39:16.928Z,929.31
2017-03-18T02:39:31.083Z,929.3
2017-03-18T02:39:45.273Z,929.29
2017-03-18T02:39:59.464Z,929.32
2017-03-18T02:40:13.611Z,929.31
2017-03-18T02:40:27.757Z,929.32
2017-03-18T02:40:41.975Z,929.36
2017-03-18T02:40:56.158Z,929.37
2017-03-18T02:41:10.327Z,929.36
2017-03-18T02:41:24.470Z,929.36
2017-03-18T02:41:38.598Z,929.33
2017-03-18T02:41:52.685Z,929.34
2017-03-18T02:42:06.842Z,929.35
2017-03-18T02:42:20.895Z,929.35
2017-03-18T02:42:35.026Z,929.42
2017-03-18T02:42:49.172Z,929.42
2017-03-18T02:43:03.302Z,929.39
2017-03-18T02:43:17.382Z,929.37
2017-03-18T02:43:31.520Z,929.37
2017-03-18T02:43:45.586Z,929.39
2017-03-18T02:43:59.724Z,929.4
2017-03-18T02:44:13.797Z,929.39
2017-03-18T02:44:27.948Z,929.4
2017-03-18T02:44:42.115Z,929.38
2017-03-18T02:44:56.256Z,929.38
2017-03-18T02:45:10.448Z,929.4
2017-03-18T02:45:24.606Z,929.44
2017-03-18T02:45:38.744Z,929.47
2017-03-18T02:45:52.902Z,929.46
2017-03-18T02:46:07.052Z,929.41
2017-03-18T02:46:21.147Z,929.4
2017-03-18T02:46:35.245Z,929.41
2017-03-18T02:46:49.406Z,929.42
2017-03-18T02:47:03.514Z,929.45
2017-03-18T02:47:17.631Z,929.44
2017-03-18T02:47:31.937Z,929.4
2017-03-18T02:47:46.013Z,929.48
2017-03-18T02:48:00.144Z,929.4
2017-03-18T02:48:14.241Z,929.45
2017-03-18T02:48:28.395Z,929.38
2017-03-18T02:48:42.607Z,929.41
2017-03-18T02:48:56.934Z,929.44
2017-03-18T02:49:11.023Z,929.4
2017-03-18T02:49:25.184Z,929.43
2017-03-18T02:49:39.373Z,929.44
2017-03-18T02:49:53.512Z,929.44
2017-03-18T02:50:07.666Z,929.4
2017-03-18T02:50:21.746Z,929.42
2017-03-18T02:50:35.855Z,929.44
2017-03-18T02:50:50.021Z,929.38
2017-03-18T02:51:04.177Z,929.41
2017-03-18T02:51:18.304Z,929.38
2017-03-18T02:51:32.457Z,929.41
2017-03-18T02:51:46.659Z,929.39
2017-03-18T02:52:00.792Z,929.34
2017-03-18T02:52:14.912Z,929.33
2017-03-18T02:52:28.965Z,929.38
2017-03-18T02:52:43.031Z,929.33
2017-03-18T02:52:57.216Z,929.32
2017-03-18T02:53:11.306Z,929.29
2017-03-18T02:53:25.454Z,929.28
2017-03-18T02:53:39.563Z,929.28
2017-03-18T02:53:53.656Z,929.29
2017-03-18T02:54:07.802Z,929.3
2017-03-18T02:54:21.987Z,929.34
2017-03-18T02:54:36.154Z,929.27
2017-03-18T02:54:50.279Z,929.27
2017-03-18T02:55:04.559Z,929.26
2017-03-18T02:55:18.671Z,929.21
2017-03-18T02:55:32.821Z,929.29
2017-03-18T02:55:46.937Z,929.28
2017-03-18T02:56:01.084Z,929.24
2017-03-18T02:56:15.192Z,929.25
2017-03-18T02:56:29.337Z,929.31
2017-03-18T02:56:43.462Z,929.29
2017-03-18T02:56:57.625Z,929.32
2017-03-18T02:57:11.671Z,929.23
2017-03-18T02:57:25.854Z,929.26
2017-03-18T02:57:40.005Z,929.34